• Join FlightAware (Why Join?)
  • Login
  • US Flag 
11:25AM EST


 

Airport Tracker/Info


-or-


 

Live Flight TrackerFlight Track Log ✈ USC108 ✈ 03-May-2013 ✈ KLCK - KJVY

Flight Track Log - Related Links

Times and Time Zones

All times are in EDT time to prevent confusion due to time zone crossing. See the USC108 flight status page for this flight to view local times or setup timezone preferences in your user account.

Time Position Orientation Groundspeed Altitude Reporting Facility
EDT Latitude Longitude Course Direction KTS MPH feet Rate Location/Type
11:04PM 39.8058 -82.9394 236° Southwest 108 124 1,100  Level Indianapolis Center
11:05PM 39.7819 -82.9856 236° Southwest 128 147 2,600 1,020 Climbing Indianapolis Center
11:06PM 39.7728 -83.0036 237° Southwest 124 143 3,000 660 Climbing Indianapolis Center
11:06PM 39.7597 -83.0317 239° Southwest 176 203 3,300 540 Climbing Indianapolis Center
11:07PM 39.7500 -83.0558 242° Southwest 148 170 3,600 540 Climbing Indianapolis Center
11:07PM 39.7375 -83.0808 237° Southwest 165 190 3,800 540 Climbing Indianapolis Center
11:08PM 39.7247 -83.1061 237° Southwest 160 184 4,200 540 Climbing Indianapolis Center
11:08PM 39.7133 -83.1294 238° Southwest 164 189 4,400 360 Climbing Indianapolis Center
11:09PM 39.7006 -83.1569 239° Southwest 162 186 4,600 480 Climbing Indianapolis Center
11:09PM 39.6911 -83.1783 240° Southwest 162 186 4,900 540 Climbing Indianapolis Center
11:10PM 39.6775 -83.2078 239° Southwest 162 186 5,200 480 Climbing Indianapolis Center
11:10PM 39.6686 -83.2297 242° Southwest 159 183 5,400 480 Climbing Indianapolis Center
11:11PM 39.6536 -83.2561 234° Southwest 159 183 5,700 480 Climbing Indianapolis Center
11:11PM 39.6397 -83.2806 234° Southwest 150 173 6,000 240 Climbing Indianapolis Center
11:12PM 39.6272 -83.3008 231° Southwest 155 178 6,000  Level Indianapolis Center
11:12PM 39.6111 -83.3314 236° Southwest 165 190 6,000  Level Indianapolis Center
11:13PM 39.6008 -83.3519 237° Southwest 164 189 6,000  Level Indianapolis Center
11:13PM 39.5822 -83.3819 231° Southwest 170 196 6,000  Level Indianapolis Center
11:14PM 39.5647 -83.4083 229° Southwest 171 197 6,000  Level Indianapolis Center
11:14PM 39.5494 -83.4322 230° Southwest 172 198 6,000  Level Indianapolis Center
11:15PM 39.5406 -83.4497 237° Southwest 171 197 6,000  Level Indianapolis Center
11:15PM 39.5228 -83.4831 235° Southwest 175 201 6,000  Level Indianapolis Center
11:16PM 39.5081 -83.5114 236° Southwest 174 200 6,000  Level Indianapolis Center
11:16PM 39.4958 -83.5339 235° Southwest 175 201 6,000  Level Indianapolis Center
11:17PM 39.4786 -83.5617 231° Southwest 174 200 6,000  Level Indianapolis Center
11:17PM 39.4672 -83.5844 237° Southwest 170 196 6,000  Level Indianapolis Center
11:18PM 39.4506 -83.6133 233° Southwest 174 200 6,000  Level Indianapolis Center
11:18PM 39.4381 -83.6375 236° Southwest 176 203 6,000  Level Indianapolis Center
11:19PM 39.4231 -83.6658 236° Southwest 174 200 6,000  Level Indianapolis Center
11:19PM 39.4111 -83.6883 236° Southwest 174 200 6,000  Level Indianapolis Center
11:20PM 39.3958 -83.7181 236° Southwest 174 200 6,000  Level Indianapolis Center
11:21PM 39.3681 -83.7694 235° Southwest 173 199 6,000  Level Indianapolis Center
11:22PM 39.3411 -83.8211 236° Southwest 172 198 6,000  Level Indianapolis Center
11:23PM 39.3136 -83.8744 236° Southwest 174 200 6,000  Level Indianapolis Center
11:24PM 39.2881 -83.9294 239° Southwest 175 201 6,000  Level Indianapolis Center
11:25PM 39.2611 -83.9833 237° Southwest 177 204 6,000  Level Indianapolis Center
11:26PM 39.2350 -84.0383 239° Southwest 177 204 6,000  Level Indianapolis Center
11:27PM 39.2078 -84.0919 237° Southwest 178 205 6,000  Level Indianapolis Center
11:28PM 39.1806 -84.1467 237° Southwest 179 206 6,000  Level Indianapolis Center
11:29PM 39.1522 -84.2003 236° Southwest 179 206 6,000  Level Indianapolis Center
11:30PM 39.1250 -84.2553 237° Southwest 180 207 6,000  Level Indianapolis Center
11:32PM 39.0833 -84.3500 240° Southwest 178 205 6,000  Level Cincinnati TRACON
11:33PM 39.0500 -84.4000 229° Southwest 177 204 6,000  Level Cincinnati TRACON
11:34PM 39.0167 -84.4500 229° Southwest 179 206 6,000  Level Cincinnati TRACON
11:35PM 39.0000 -84.5000 247° West 179 206 6,000  Level Cincinnati TRACON
11:36PM 38.9667 -84.5500 229° Southwest 181 208 6,000  Level Cincinnati TRACON
11:37PM 38.9500 -84.6000 247° West 183 211 6,000  Level Cincinnati TRACON
11:38PM 38.9167 -84.6667 237° Southwest 183 211 6,000  Level Cincinnati TRACON
11:39PM 38.9000 -84.7167 247° West 180 207 6,000  Level Cincinnati TRACON
11:40PM 38.8667 -84.7667 229° Southwest 182 209 6,000  Level Cincinnati TRACON
11:40PM 38.8539 -84.7917 237° Southwest 182 209 6,000  Level Indianapolis Center
11:41PM 38.8261 -84.8456 237° Southwest 182 209 6,000  Level Indianapolis Center
11:42PM 38.7986 -84.8989 237° Southwest 180 207 6,000  Level Indianapolis Center
11:43PM 38.7678 -84.9619 238° Southwest 176 203 6,000  Level Indianapolis Center
11:44PM 38.7392 -85.0139 235° Southwest 178 205 6,000  Level Indianapolis Center
11:45PM 38.7133 -85.0661 238° Southwest 176 203 6,000  Level Indianapolis Center
11:46PM 38.6858 -85.1200 237° Southwest 179 206 6,000  Level Indianapolis Center
11:47PM 38.6578 -85.1742 236° Southwest 182 209 6,000 -60 Level Indianapolis Center
11:48PM 38.6289 -85.2303 237° Southwest 180 207 5,900 -240 Descending Indianapolis Center
11:49PM 38.5997 -85.2847 236° Southwest 183 211 5,600 -420 Descending Indianapolis Center
11:50PM 38.5706 -85.3417 237° Southwest 190 219 5,100 -480 Descending Indianapolis Center
11:51PM 38.5433 -85.3967 238° Southwest 185 213 4,700 -360 Descending Indianapolis Center
11:52PM 38.5208 -85.4533 243° Southwest 181 208 4,400 -420 Descending Indianapolis Center
11:53PM 38.5056 -85.5078 250° West 185 213 3,900 -540 Descending Indianapolis Center